Time;durP1;ratioP1;P1;durP2;ratioP2;P2;SDS_P1;SDS_P2;PMS_P1;PMS_P2;Temp;Humidity;BMP_temperature;BMP_pressure;BME280_temperature;BME280_humidity;BME280_pressure;Samples;Min_cycle;Max_cycle;Signal;HPM_P1;HPM_P2
2022/03/18 00:01:18;;;;;;;31.83;18.77;;;5.60;99.90;;;;;;4994226;28;20026;-69
2022/03/18 00:03:44;;;;;;;31.67;19.50;;;5.60;99.90;;;;;;4990876;28;20029;-69
2022/03/18 00:06:12;;;;;;;31.87;18.80;;;5.50;99.90;;;;;;4994559;28;20064;-69
2022/03/18 00:08:37;;;;;;;37.60;19.65;;;5.50;99.90;;;;;;4990296;28;20112;-69
2022/03/18 00:11:03;;;;;;;29.40;18.93;;;5.50;99.90;;;;;;4994662;28;20067;-69
2022/03/18 00:13:29;;;;;;;30.13;18.07;;;5.40;99.90;;;;;;4992054;28;20503;-69
2022/03/18 00:15:56;;;;;;;31.93;19.80;;;5.40;99.90;;;;;;4996155;28;20080;-69
2022/03/18 00:18:22;;;;;;;33.97;18.70;;;5.40;99.90;;;;;;4994091;28;20018;-69
2022/03/18 00:20:48;;;;;;;31.10;18.57;;;5.30;99.90;;;;;;4994367;28;20037;-69
2022/03/18 00:23:14;;;;;;;31.27;20.03;;;5.30;99.90;;;;;;4994255;28;20712;-69
2022/03/18 00:25:39;;;;;;;33.30;20.20;;;5.30;99.90;;;;;;4991863;28;20418;-69
2022/03/18 00:28:05;;;;;;;33.03;18.43;;;5.30;99.90;;;;;;4996604;28;20365;-69
2022/03/18 00:30:31;;;;;;;28.70;18.97;;;5.30;99.90;;;;;;4993145;28;20041;-69
2022/03/18 00:32:56;;;;;;;28.57;18.30;;;5.20;99.90;;;;;;4997301;28;20058;-69
2022/03/18 00:35:23;;;;;;;32.00;19.33;;;5.30;99.90;;;;;;4995748;28;20552;-69
2022/03/18 00:37:49;;;;;;;31.35;18.80;;;5.30;99.90;;;;;;4998131;28;20072;-69
2022/03/18 00:40:15;;;;;;;40.87;20.67;;;5.20;99.90;;;;;;4998040;28;20108;-69
2022/03/18 00:42:40;;;;;;;29.70;17.87;;;5.20;99.90;;;;;;4995559;28;20683;-69
2022/03/18 00:45:07;;;;;;;33.73;19.30;;;5.20;99.90;;;;;;4999320;28;20444;-69
2022/03/18 00:53:02;;;;;;;34.17;19.25;;;5.10;99.90;;;;;;4999413;28;20029;-69
2022/03/18 00:55:28;;;;;;;31.90;19.50;;;5.10;99.90;;;;;;4996045;28;20029;-69
2022/03/18 00:57:55;;;;;;;32.00;20.20;;;5.10;99.90;;;;;;5000030;28;20030;-69
2022/03/18 01:00:21;;;;;;;32.42;19.95;;;5.10;99.90;;;;;;4998590;28;20033;-69
2022/03/18 01:02:46;;;;;;;34.33;20.17;;;5.10;99.90;;;;;;4996674;28;20028;-69
2022/03/18 01:05:12;;;;;;;33.77;20.23;;;5.10;99.90;;;;;;4997637;28;20034;-69
2022/03/18 01:07:38;;;;;;;33.77;19.43;;;5.10;99.90;;;;;;4994600;28;20459;-69
2022/03/18 01:10:04;;;;;;;30.87;18.07;;;5.10;99.90;;;;;;4997918;28;20034;-69
2022/03/18 01:12:30;;;;;;;29.80;19.38;;;5.10;99.90;;;;;;4994103;28;20025;-69
2022/03/18 01:14:56;;;;;;;30.23;18.60;;;5.10;99.90;;;;;;4999749;28;20088;-69
2022/03/18 01:17:22;;;;;;;33.10;19.20;;;5.10;99.90;;;;;;4998229;28;20030;-69
2022/03/18 01:19:48;;;;;;;33.17;19.33;;;5.10;99.90;;;;;;4992763;28;20490;-69
2022/03/18 01:22:13;;;;;;;33.67;17.93;;;5.10;99.90;;;;;;4998017;28;20061;-69
2022/03/18 01:24:39;;;;;;;27.87;17.73;;;5.10;99.90;;;;;;4993198;28;20033;-69
2022/03/18 01:27:06;;;;;;;33.70;18.47;;;5.10;99.90;;;;;;4998487;28;20034;-69
2022/03/18 01:29:32;;;;;;;27.40;17.77;;;5.10;99.90;;;;;;4992973;28;20048;-69
2022/03/18 01:31:58;;;;;;;33.58;18.88;;;5.10;99.90;;;;;;4999044;28;20018;-69
2022/03/18 01:34:25;;;;;;;29.52;19.23;;;5.10;99.90;;;;;;4994712;28;20083;-69
2022/03/18 01:36:51;;;;;;;31.60;18.77;;;5.10;99.90;;;;;;4997900;28;20034;-69
2022/03/18 01:39:17;;;;;;;33.53;17.58;;;5.20;99.90;;;;;;4996670;28;20387;-69
2022/03/18 01:41:43;;;;;;;31.43;18.17;;;5.20;99.90;;;;;;4994988;28;20018;-69
2022/03/18 01:44:10;;;;;;;30.90;18.38;;;5.20;99.90;;;;;;4996964;28;20395;-69
2022/03/18 01:46:37;;;;;;;29.13;17.48;;;5.30;99.90;;;;;;4991610;28;20084;-69
2022/03/18 01:49:04;;;;;;;28.38;17.50;;;5.30;99.90;;;;;;4996572;28;20018;-69
2022/03/18 01:51:30;;;;;;;;;;;5.30;99.90;;;;;;4996391;28;20030;-69
2022/03/18 01:56:41;;;;;;;32.05;18.88;;;5.40;99.90;;;;;;4994150;28;20084;-69
2022/03/18 01:59:07;;;;;;;31.88;18.52;;;5.30;99.90;;;;;;4997642;28;20030;-69
2022/03/18 02:01:34;;;;;;;33.40;19.13;;;5.20;99.90;;;;;;4993744;28;20068;-69
2022/03/18 02:04:00;;;;;;;30.23;17.30;;;5.20;99.90;;;;;;4995361;28;20018;-69
2022/03/18 02:06:25;;;;;;;28.57;17.23;;;5.20;99.90;;;;;;4993816;28;20029;-69
2022/03/18 02:08:51;;;;;;;29.60;17.07;;;5.20;99.90;;;;;;4998035;28;20022;-69
2022/03/18 02:11:16;;;;;;;28.90;17.50;;;5.20;99.90;;;;;;4996885;28;20037;-69
2022/03/18 02:13:43;;;;;;;30.60;17.33;;;5.20;99.90;;;;;;4992498;28;20269;-69
2022/03/18 02:16:09;;;;;;;34.70;17.42;;;5.10;99.90;;;;;;4996366;28;20071;-69
2022/03/18 02:18:35;;;;;;;28.17;16.93;;;5.10;99.90;;;;;;4992513;28;20036;-69
2022/03/18 02:21:00;;;;;;;35.20;18.17;;;5.10;99.90;;;;;;4995604;28;20037;-69
2022/03/18 02:23:26;;;;;;;28.93;17.97;;;5.10;99.90;;;;;;4991342;28;20025;-69
2022/03/18 02:25:52;;;;;;;32.33;18.63;;;5.00;99.90;;;;;;4997707;28;20411;-69
2022/03/18 02:28:19;;;;;;;28.93;17.33;;;5.00;99.90;;;;;;4996927;28;20549;-69
2022/03/18 02:30:45;;;;;;;29.55;17.92;;;5.00;99.90;;;;;;4992838;28;20445;-69
2022/03/18 02:33:11;;;;;;;31.03;19.53;;;5.00;99.90;;;;;;4997181;28;20057;-69
2022/03/18 02:35:39;;;;;;;32.88;18.77;;;5.00;99.90;;;;;;4992389;28;20026;-69
2022/03/18 02:38:04;;;;;;;26.33;17.40;;;5.00;99.90;;;;;;4996518;28;20128;-69
2022/03/18 02:40:33;;;;;;;30.27;18.10;;;4.90;99.90;;;;;;4992941;28;20020;-69
2022/03/18 02:42:59;;;;;;;32.50;19.50;;;4.90;99.90;;;;;;4994467;28;20466;-69
2022/03/18 02:45:25;;;;;;;29.90;18.33;;;4.90;99.90;;;;;;4994005;28;20034;-69
2022/03/18 02:47:51;;;;;;;32.17;18.60;;;4.80;99.90;;;;;;5011801;28;21201;-69
2022/03/18 02:50:16;;;;;;;36.40;19.03;;;4.80;99.90;;;;;;4995277;28;20113;-69
2022/03/18 02:52:43;;;;;;;30.10;19.00;;;4.80;99.90;;;;;;4991772;28;20617;-69
2022/03/18 02:55:09;;;;;;;27.65;18.27;;;4.70;99.90;;;;;;4997209;28;20030;-69
2022/03/18 02:57:36;;;;;;;29.73;17.83;;;4.70;99.90;;;;;;4991396;28;20371;-69
2022/03/18 03:00:02;;;;;;;29.52;18.17;;;4.70;99.90;;;;;;4995232;28;20020;-68
2022/03/18 03:02:28;;;;;;;29.20;17.58;;;4.70;99.90;;;;;;4991411;28;20033;-69
2022/03/18 03:10:22;;;;;;;31.48;18.65;;;4.60;99.90;;;;;;4996519;28;20097;-69
2022/03/18 03:12:49;;;;;;;31.00;17.47;;;4.60;99.90;;;;;;4993796;28;20053;-69
2022/03/18 03:15:15;;;;;;;35.65;19.58;;;4.60;99.90;;;;;;4996585;28;20037;-69
2022/03/18 03:17:41;;;;;;;32.07;18.40;;;4.60;99.90;;;;;;4993198;28;20100;-69
2022/03/18 03:20:08;;;;;;;31.63;19.30;;;4.60;99.90;;;;;;4995621;28;20037;-69
2022/03/18 03:22:34;;;;;;;29.73;18.15;;;4.60;99.90;;;;;;4989887;28;20026;-69
2022/03/18 03:25:00;;;;;;;36.93;20.40;;;4.60;99.90;;;;;;4996565;28;20026;-69
2022/03/18 03:27:30;;;;;;;32.92;18.45;;;4.60;99.90;;;;;;4994165;28;20075;-69
2022/03/18 03:30:00;;;;;;;36.40;18.98;;;4.50;99.90;;;;;;4997385;28;20029;-69
2022/03/18 03:32:27;;;;;;;31.52;18.77;;;4.60;99.90;;;;;;4994098;28;20459;-69
2022/03/18 03:34:54;;;;;;;31.00;19.38;;;4.50;99.90;;;;;;4996603;28;20510;-69
2022/03/18 03:37:20;;;;;;;31.95;18.70;;;4.50;99.90;;;;;;4994113;28;20739;-69
2022/03/18 03:39:46;;;;;;;30.23;18.90;;;4.50;99.90;;;;;;4991790;28;20184;-69
2022/03/18 03:42:12;;;;;;;34.00;20.10;;;4.50;99.90;;;;;;4996733;28;20095;-69
2022/03/18 03:44:37;;;;;;;31.33;20.13;;;5.30;99.90;;;;;;4992188;28;20021;-69
2022/03/18 03:47:03;;;;;;;37.30;19.83;;;4.50;99.90;;;;;;4997732;28;20300;-69
2022/03/18 03:49:29;;;;;;;32.83;19.43;;;4.50;99.90;;;;;;4994061;28;20026;-70
2022/03/18 03:51:55;;;;;;;34.67;21.10;;;4.60;99.90;;;;;;4997002;28;20026;-69
2022/03/18 03:54:20;;;;;;;32.80;19.87;;;4.60;99.90;;;;;;4996475;28;20083;-69
2022/03/18 03:56:46;;;;;;;35.53;19.23;;;4.60;99.90;;;;;;4992257;28;20025;-69
2022/03/18 03:59:12;;;;;;;32.40;19.37;;;4.60;99.90;;;;;;4997506;28;20040;-69
2022/03/18 04:01:38;;;;;;;34.87;19.47;;;4.60;99.90;;;;;;4990850;28;20071;-69
2022/03/18 04:04:04;;;;;;;33.65;19.75;;;4.60;99.90;;;;;;4994712;28;20478;-69
2022/03/18 04:06:30;;;;;;;32.27;18.67;;;4.60;99.90;;;;;;4989739;28;20030;-69
2022/03/18 04:08:56;;;;;;;32.72;19.65;;;4.60;99.90;;;;;;4993557;28;20289;-70
2022/03/18 04:11:22;;;;;;;30.30;18.37;;;4.70;99.90;;;;;;4995640;28;20061;-69
2022/03/18 04:13:48;;;;;;;30.90;19.23;;;4.60;99.90;;;;;;4991533;28;20113;-69
2022/03/18 04:16:15;;;;;;;33.78;20.05;;;4.60;99.90;;;;;;4995917;28;20026;-69
2022/03/18 04:18:41;;;;;;;33.35;20.50;;;4.60;99.90;;;;;;4991860;28;20045;-69
2022/03/18 04:21:07;;;;;;;33.43;20.80;;;4.60;99.90;;;;;;4993912;28;20793;-69
2022/03/18 04:23:32;;;;;;;36.47;20.50;;;4.60;99.90;;;;;;4992234;28;20113;-70
2022/03/18 04:25:58;;;;;;;32.97;19.83;;;4.60;99.90;;;;;;4994891;28;20110;-69
2022/03/18 04:28:23;;;;;;;35.50;20.63;;;4.60;99.90;;;;;;4994107;28;20049;-69
2022/03/18 04:30:49;;;;;;;36.13;20.97;;;4.60;99.90;;;;;;5007970;28;20026;-69
2022/03/18 04:33:15;;;;;;;33.60;20.13;;;4.60;99.90;;;;;;4995223;28;20034;-69
2022/03/18 04:35:40;;;;;;;32.93;19.13;;;4.60;99.90;;;;;;4993415;28;20475;-69
2022/03/18 04:38:07;;;;;;;34.63;20.17;;;4.60;99.90;;;;;;4996088;28;20092;-69
2022/03/18 04:40:33;;;;;;;36.72;19.83;;;4.60;99.90;;;;;;4989450;28;20353;-69
2022/03/18 04:42:59;;;;;;;34.93;20.40;;;4.50;99.90;;;;;;4997381;28;20048;-69
2022/03/18 04:45:25;;;;;;;33.23;19.97;;;4.60;99.90;;;;;;4993725;28;20107;-69
2022/03/18 04:47:50;;;;;;;35.17;20.83;;;4.60;99.90;;;;;;4993653;28;20028;-69
2022/03/18 04:50:16;;;;;;;34.50;20.57;;;4.60;99.90;;;;;;4996370;28;20609;-68
2022/03/18 04:52:42;;;;;;;36.63;20.17;;;4.60;99.90;;;;;;4993076;28;20794;-69
2022/03/18 04:55:09;;;;;;;35.17;19.20;;;4.60;99.90;;;;;;4994943;28;20026;-69
2022/03/18 04:57:35;;;;;;;32.65;21.15;;;4.60;99.90;;;;;;4992804;28;20036;-69
2022/03/18 05:00:01;;;;;;;36.05;20.13;;;4.60;99.90;;;;;;4994239;28;20467;-69
2022/03/18 05:02:28;;;;;;;34.27;20.40;;;4.60;99.90;;;;;;5010049;28;20030;-69
2022/03/18 05:04:54;;;;;;;35.25;19.98;;;4.60;99.90;;;;;;4991965;28;20029;-69
2022/03/18 05:07:20;;;;;;;32.93;19.57;;;4.60;99.90;;;;;;4995775;28;20026;-69
2022/03/18 05:09:47;;;;;;;33.08;19.13;;;4.60;99.90;;;;;;4989759;28;20165;-69
2022/03/18 05:12:13;;;;;;;;;;;4.60;99.90;;;;;;4994112;28;20029;-69
2022/03/18 05:14:40;;;;;;;32.67;18.85;;;4.60;99.90;;;;;;4991548;28;19913;-69
2022/03/18 05:17:08;;;;;;;35.85;19.35;;;4.60;99.90;;;;;;4996024;28;20065;-69
2022/03/18 05:19:35;;;;;;;35.53;19.77;;;4.60;99.90;;;;;;4990994;28;20029;-70
2022/03/18 05:22:01;;;;;;;33.15;19.73;;;4.60;99.90;;;;;;4994415;28;20646;-69
2022/03/18 05:24:26;;;;;;;35.20;20.70;;;4.30;99.90;;;;;;4998666;28;20041;-69
2022/03/18 05:26:56;;;;;;;38.60;21.70;;;4.60;99.90;;;;;;4995088;28;20033;-69
2022/03/18 05:29:22;;;;;;;31.17;19.02;;;4.60;99.90;;;;;;4999882;28;20037;-69
2022/03/18 05:31:49;;;;;;;36.53;20.08;;;4.60;99.90;;;;;;4992322;28;20025;-69
2022/03/18 05:34:14;;;;;;;38.90;21.92;;;4.70;99.90;;;;;;4997660;28;20049;-69
2022/03/18 05:36:40;;;;;;;40.37;21.10;;;4.70;99.90;;;;;;4995583;28;20353;-69
2022/03/18 05:39:06;;;;;;;39.47;22.45;;;4.70;99.90;;;;;;4998332;28;20026;-69
2022/03/18 05:41:32;;;;;;;35.27;20.37;;;4.70;99.90;;;;;;4993070;28;20026;-69
2022/03/18 05:43:59;;;;;;;35.92;20.48;;;4.80;99.90;;;;;;4995991;28;20398;-69
2022/03/18 05:46:25;;;;;;;40.03;21.90;;;4.80;99.90;;;;;;4998344;28;20026;-69
2022/03/18 05:48:51;;;;;;;36.03;20.10;;;4.80;99.90;;;;;;4995582;28;20088;-69
2022/03/18 05:51:18;;;;;;;37.00;21.27;;;4.90;99.90;;;;;;4996079;28;20363;-69
2022/03/18 05:53:43;;;;;;;;;;;5.10;99.90;;;;;;4994647;28;20038;-70
2022/03/18 05:58:55;;;;;;;35.40;20.75;;;5.00;99.90;;;;;;4993871;28;20087;-69
2022/03/18 06:01:20;;;;;;;38.30;20.77;;;5.10;99.90;;;;;;4996807;28;20080;-69
2022/03/18 06:03:48;;;;;;;34.13;20.87;;;5.20;99.90;;;;;;4992421;28;20030;-69
2022/03/18 06:06:14;;;;;;;37.75;20.77;;;5.30;99.90;;;;;;4996557;28;20034;-69
2022/03/18 06:14:08;;;;;;;38.25;21.02;;;5.50;99.90;;;;;;4997525;28;20048;-69
2022/03/18 06:16:36;;;;;;;37.33;21.30;;;5.50;99.90;;;;;;4993354;28;20018;-70
2022/03/18 06:19:01;;;;;;;40.35;21.58;;;5.60;99.90;;;;;;4997546;28;20113;-69
2022/03/18 06:21:27;;;;;;;38.73;21.20;;;5.70;99.90;;;;;;4996525;28;20084;-69
2022/03/18 06:23:53;;;;;;;38.60;21.40;;;5.80;99.90;;;;;;4993816;28;20719;-68
2022/03/18 06:26:19;;;;;;;41.60;22.17;;;5.90;99.90;;;;;;4999034;28;20021;-69
2022/03/18 06:28:45;;;;;;;36.97;20.35;;;6.00;99.90;;;;;;4993117;28;20022;-69
2022/03/18 06:31:11;;;;;;;39.07;21.17;;;6.10;99.90;;;;;;4997183;28;20075;-69
2022/03/18 06:33:43;;;;;;;38.80;21.30;;;6.20;99.90;;;;;;4993162;28;20029;-69
2022/03/18 06:36:13;;;;;;;34.92;20.52;;;6.30;99.90;;;;;;4996774;28;20026;-69
2022/03/18 06:38:39;;;;;;;34.63;19.58;;;6.40;99.90;;;;;;4991871;28;20026;-69
2022/03/18 06:41:05;;;;;;;42.45;26.77;;;6.60;99.90;;;;;;4995884;28;20025;-69
2022/03/18 06:43:31;;;;;;;38.93;21.47;;;6.60;99.90;;;;;;4997367;28;20723;-69
2022/03/18 06:45:57;;;;;;;36.63;20.38;;;6.70;99.90;;;;;;4994196;28;20045;-69
2022/03/18 06:48:23;;;;;;;37.30;20.73;;;6.60;99.90;;;;;;4997611;28;20456;-69
2022/03/18 06:50:49;;;;;;;32.93;19.73;;;6.60;99.90;;;;;;4992288;28;20018;-69
2022/03/18 06:53:15;;;;;;;33.50;19.53;;;6.70;99.90;;;;;;4995274;28;20088;-69
2022/03/18 06:55:40;;;;;;;36.53;19.40;;;6.70;99.90;;;;;;4990964;28;20050;-69
2022/03/18 06:58:06;;;;;;;31.80;19.37;;;6.60;99.90;;;;;;4997685;28;20065;-69
2022/03/18 07:00:32;;;;;;;35.33;18.90;;;6.60;99.90;;;;;;4995172;28;20489;-69
2022/03/18 07:02:58;;;;;;;38.33;20.27;;;6.60;99.90;;;;;;4992531;28;20387;-69
2022/03/18 07:05:24;;;;;;;32.50;18.70;;;6.70;99.90;;;;;;4995004;28;20030;-69
2022/03/18 07:07:49;;;;;;;35.13;18.80;;;6.80;99.90;;;;;;4992958;28;20442;-69
2022/03/18 07:10:15;;;;;;;34.83;20.37;;;7.00;99.90;;;;;;4999194;28;20434;-69
2022/03/18 07:12:42;;;;;;;37.97;20.97;;;7.10;99.90;;;;;;4992244;28;20014;-70
2022/03/18 07:15:08;;;;;;;30.42;19.50;;;7.10;99.90;;;;;;4996334;28;20033;-69
2022/03/18 07:20:18;;;;;;;32.13;18.42;;;7.30;99.90;;;;;;4995926;28;20426;-69
2022/03/18 07:22:44;;;;;;;31.63;19.70;;;7.50;99.90;;;;;;4990577;28;20034;-69
2022/03/18 07:25:10;;;;;;;33.70;19.47;;;7.60;99.90;;;;;;4996251;28;20034;-69
2022/03/18 07:27:36;;;;;;;36.58;19.40;;;7.70;99.90;;;;;;4993645;28;20351;-69
2022/03/18 07:30:05;;;;;;;35.05;20.20;;;7.80;99.90;;;;;;4995835;28;20044;-69
2022/03/18 07:32:32;;;;;;;31.33;19.08;;;7.90;99.90;;;;;;4992668;28;20391;-69
2022/03/18 07:34:58;;;;;;;35.92;19.25;;;8.10;99.90;;;;;;4989680;28;20054;-69
2022/03/18 07:37:26;;;;;;;36.23;19.43;;;8.20;99.90;;;;;;4995365;28;20026;-69
2022/03/18 07:39:52;;;;;;;33.38;18.77;;;8.50;99.90;;;;;;4991394;28;20080;-69
2022/03/18 07:42:18;;;;;;;33.10;18.53;;;8.60;99.30;;;;;;4995736;28;20129;-69
2022/03/18 07:44:44;;;;;;;31.50;19.05;;;8.60;99.40;;;;;;4990529;28;20121;-70
2022/03/18 07:47:12;;;;;;;32.30;18.30;;;8.60;99.20;;;;;;4995172;28;20030;-69
2022/03/18 07:49:38;;;;;;;31.58;20.10;;;8.50;99.50;;;;;;4991815;28;20472;-70
2022/03/18 07:52:04;;;;;;;32.73;18.73;;;8.70;98.90;;;;;;4995001;28;20044;-70
2022/03/18 07:54:29;;;;;;;32.42;19.17;;;8.90;98.40;;;;;;4993577;28;20034;-69
2022/03/18 07:56:55;;;;;;;31.73;18.03;;;8.70;98.20;;;;;;4992075;28;20041;-69
2022/03/18 07:59:21;;;;;;;33.27;18.70;;;9.00;98.00;;;;;;4995882;28;20030;-69
2022/03/18 08:01:47;;;;;;;31.07;18.07;;;9.00;97.80;;;;;;4990109;28;20026;-69
2022/03/18 08:04:13;;;;;;;;;;;9.10;97.80;;;;;;4995428;28;21482;-70
2022/03/18 08:06:40;;;;;;;30.27;18.38;;;9.30;97.10;;;;;;4990692;28;19944;-69
2022/03/18 08:09:05;;;;;;;30.88;18.80;;;9.60;96.50;;;;;;4995077;28;20032;-70
2022/03/18 08:11:32;;;;;;;28.17;18.03;;;9.80;95.90;;;;;;4994085;28;20406;-70
2022/03/18 08:13:58;;;;;;;;;;;9.60;96.20;;;;;;4990333;28;20072;-70
2022/03/18 08:16:26;;;;;;;29.45;18.50;;;9.90;95.40;;;;;;4995824;28;19906;-69
2022/03/18 08:18:56;;;;;;;29.45;18.67;;;9.90;95.50;;;;;;4992745;28;20072;-70
2022/03/18 08:21:23;;;;;;;31.33;19.13;;;10.40;94.60;;;;;;4994698;28;20054;-70
2022/03/18 08:23:48;;;;;;;32.15;19.10;;;10.70;93.90;;;;;;4992034;28;20033;-70
2022/03/18 08:26:14;;;;;;;31.80;18.70;;;10.70;93.50;;;;;;4994791;28;20041;-69
2022/03/18 08:28:40;;;;;;;30.50;18.77;;;11.00;93.20;;;;;;4992485;28;20045;-70
2022/03/18 08:31:05;;;;;;;28.57;18.93;;;11.40;92.30;;;;;;4995761;28;20030;-69
2022/03/18 08:33:32;;;;;;;32.73;20.23;;;11.70;91.30;;;;;;4995345;28;20030;-69
2022/03/18 08:35:58;;;;;;;;;;;11.80;90.10;;;;;;4989118;28;20431;-69
2022/03/18 08:38:23;;;;;;;34.33;20.70;;;11.50;90.80;;;;;;4993269;28;19909;-69
2022/03/18 08:40:49;;;;;;;35.47;20.43;;;11.30;91.30;;;;;;4991108;28;20037;-70
2022/03/18 08:43:15;;;;;;;32.93;19.87;;;11.20;91.10;;;;;;4994727;28;20021;-69
2022/03/18 08:45:40;;;;;;;29.73;20.30;;;11.30;90.80;;;;;;4993553;28;20049;-70
2022/03/18 08:48:07;;;;;;;32.70;19.63;;;11.10;91.20;;;;;;4995367;28;20383;-70
2022/03/18 08:50:33;;;;;;;30.83;20.15;;;11.20;91.50;;;;;;4994653;28;20022;-70
2022/03/18 08:52:58;;;;;;;30.17;20.30;;;11.30;90.80;;;;;;4991002;28;20049;-69
2022/03/18 08:55:25;;;;;;;31.23;20.60;;;10.70;91.60;;;;;;4996659;28;20053;-69
2022/03/18 08:57:50;;;;;;;33.22;19.33;;;10.60;92.10;;;;;;4993186;28;20041;-70
2022/03/18 09:00:18;;;;;;;31.70;19.67;;;11.10;92.00;;;;;;4997942;28;20447;-69
2022/03/18 09:02:45;;;;;;;33.10;20.55;;;11.80;90.90;;;;;;4994971;28;20661;-70
2022/03/18 09:05:13;;;;;;;33.42;21.35;;;12.20;89.10;;;;;;4997815;28;20014;-70
2022/03/18 09:07:39;;;;;;;28.85;20.60;;;11.90;89.10;;;;;;4998743;28;20074;-69
2022/03/18 09:10:07;;;;;;;30.20;19.65;;;11.80;89.70;;;;;;4996117;28;20034;-70
2022/03/18 09:12:33;;;;;;;36.47;20.55;;;12.00;90.00;;;;;;4997695;28;20040;-69
2022/03/18 09:14:59;;;;;;;33.63;19.90;;;11.80;89.20;;;;;;4995073;28;20101;-70
2022/03/18 09:17:25;;;;;;;34.63;21.35;;;11.80;89.80;;;;;;4999254;28;20025;-69
2022/03/18 09:19:52;;;;;;;30.38;20.50;;;11.90;90.00;;;;;;4994796;28;20109;-70
2022/03/18 09:22:19;;;;;;;35.45;21.05;;;11.50;90.50;;;;;;4999494;28;20026;-69
2022/03/18 09:24:46;;;;;;;33.00;20.80;;;11.20;91.20;;;;;;4993878;28;20037;-70
2022/03/18 09:27:12;;;;;;;32.45;20.83;;;11.10;91.40;;;;;;4996663;28;20025;-69
2022/03/18 09:29:39;;;;;;;33.85;21.50;;;11.00;91.50;;;;;;4996371;28;20373;-70
2022/03/18 09:32:05;;;;;;;37.90;20.98;;;11.50;91.30;;;;;;4993585;28;20030;-70
2022/03/18 09:34:31;;;;;;;33.88;22.42;;;11.70;91.00;;;;;;4996439;28;20022;-70
2022/03/18 09:36:58;;;;;;;31.77;20.98;;;11.90;90.30;;;;;;4993160;28;20076;-69
2022/03/18 09:39:29;;;;;;;34.47;22.08;;;11.60;90.90;;;;;;4996281;28;20060;-70
2022/03/18 09:41:56;;;;;;;32.58;20.77;;;12.10;90.20;;;;;;4992106;28;20029;-70
2022/03/18 09:44:21;;;;;;;30.52;21.08;;;12.00;90.40;;;;;;4997123;28;21001;-70
2022/03/18 09:46:49;;;;;;;30.20;20.50;;;12.40;89.10;;;;;;4999810;28;20541;-70
2022/03/18 09:49:17;;;;;;;42.17;23.35;;;12.50;89.90;;;;;;4998385;28;20033;-69
2022/03/18 09:51:43;;;;;;;32.92;21.65;;;12.70;87.70;;;;;;4998150;28;20022;-70
2022/03/18 09:54:13;;;;;;;33.47;21.67;;;12.10;89.10;;;;;;4995027;28;20033;-69
2022/03/18 09:56:46;;;;;;;36.50;22.80;;;11.80;91.10;;;;;;4999066;28;20105;-69
2022/03/18 09:59:12;;;;;;;33.60;22.73;;;12.10;90.50;;;;;;4995294;28;21026;-69
2022/03/18 10:01:39;;;;;;;35.72;23.85;;;12.70;89.60;;;;;;4998473;28;20076;-69
2022/03/18 10:04:13;;;;;;;40.83;23.90;;;13.10;87.10;;;;;;4993213;28;20014;-69
2022/03/18 10:06:42;;;;;;;38.75;23.75;;;13.10;85.60;;;;;;4995531;28;20032;-69
2022/03/18 10:09:09;;;;;;;41.28;26.15;;;13.10;86.10;;;;;;4993044;28;20033;-68
2022/03/18 10:11:43;;;;;;;39.58;22.70;;;13.00;86.00;;;;;;4997185;28;20021;-69
2022/03/18 10:14:21;;;;;;;34.92;23.23;;;13.10;86.30;;;;;;4992500;28;20025;-69
2022/03/18 10:16:48;;;;;;;32.28;22.20;;;13.60;84.60;;;;;;4996818;28;20013;-69
2022/03/18 10:19:20;;;;;;;32.28;21.67;;;12.80;87.30;;;;;;4997377;28;20026;-69
2022/03/18 10:21:51;;;;;;;32.97;22.40;;;12.50;88.50;;;;;;4993473;28;20026;-69
2022/03/18 10:24:17;;;;;;;34.60;22.55;;;12.80;87.90;;;;;;4995443;28;20069;-69
2022/03/18 10:26:43;;;;;;;31.67;21.60;;;13.00;86.90;;;;;;4991194;28;20053;-69
2022/03/18 10:29:13;;;;;;;30.10;21.80;;;13.50;86.30;;;;;;4997004;28;20121;-69
2022/03/18 10:31:40;;;;;;;31.65;22.27;;;14.30;83.60;;;;;;4993461;28;20025;-69
2022/03/18 10:37:09;;;;;;;31.45;21.55;;;14.40;81.50;;;;;;4998017;28;20398;-69
2022/03/18 10:39:35;;;;;;;29.80;21.00;;;14.10;80.40;;;;;;4991520;28;20035;-69
2022/03/18 10:42:04;;;;;;;31.13;21.13;;;14.10;80.60;;;;;;4997627;28;20045;-69
2022/03/18 10:44:46;;;;;;;31.40;21.77;;;14.00;81.30;;;;;;4989907;28;20057;-69
2022/03/18 10:47:36;;;;;;;31.58;21.45;;;14.10;80.50;;;;;;4995792;28;20109;-69
2022/03/18 10:50:11;;;;;;;30.85;21.08;;;14.60;77.90;;;;;;4994136;28;20072;-69
2022/03/18 10:52:40;;;;;;;28.98;19.45;;;14.10;78.00;;;;;;4991024;28;20041;-69
2022/03/18 10:55:23;;;;;;;30.77;22.00;;;14.40;78.50;;;;;;4995652;28;20072;-69
2022/03/18 10:58:02;;;;;;;26.50;20.23;;;14.40;77.90;;;;;;4997194;28;20041;-69
2022/03/18 11:00:33;;;;;;;27.15;18.50;;;14.10;78.00;;;;;;4990269;28;20018;-69
2022/03/18 11:03:01;;;;;;;28.70;19.50;;;14.20;76.10;;;;;;4994449;28;20030;-70
2022/03/18 11:05:37;;;;;;;26.05;19.80;;;14.00;76.70;;;;;;4990810;28;20101;-69
2022/03/18 11:08:05;;;;;;;31.23;19.52;;;13.90;79.00;;;;;;4993550;28;20042;-69
2022/03/18 11:13:23;;;;;;;28.42;18.83;;;14.10;77.10;;;;;;4994640;28;20028;-69
2022/03/18 11:15:50;;;;;;;27.17;19.25;;;14.10;77.00;;;;;;4996283;28;20017;-69
2022/03/18 11:18:16;;;;;;;26.85;19.48;;;14.50;76.10;;;;;;4996988;28;20038;-67
2022/03/18 11:20:43;;;;;;;25.50;18.52;;;14.20;75.50;;;;;;4988505;28;20250;-68
2022/03/18 11:23:25;;;;;;;26.45;17.95;;;14.10;76.00;;;;;;4996043;28;20022;-68
2022/03/18 11:25:55;;;;;;;25.35;18.85;;;14.00;74.80;;;;;;4995164;28;20022;-68
2022/03/18 11:28:22;;;;;;;26.40;19.05;;;13.60;76.40;;;;;;5023309;28;20718;-68
2022/03/18 11:31:00;;;;;;;28.88;19.08;;;13.00;76.80;;;;;;4994841;28;20082;-68
2022/03/18 11:33:26;;;;;;;28.17;20.45;;;12.70;78.50;;;;;;4992585;28;20060;-68
2022/03/18 11:35:52;;;;;;;27.65;19.08;;;13.00;78.60;;;;;;4996476;28;20029;-69
2022/03/18 11:38:25;;;;;;;27.48;18.10;;;13.10;79.70;;;;;;4995233;28;20022;-68
2022/03/18 11:40:56;;;;;;;27.02;19.00;;;13.60;78.60;;;;;;4995347;28;20726;-69
2022/03/18 11:43:35;;;;;;;25.35;18.40;;;13.90;74.90;;;;;;4993376;28;20048;-69
2022/03/18 11:46:13;;;;;;;30.15;20.50;;;14.10;75.30;;;;;;4996759;28;20014;-68
2022/03/18 11:48:51;;;;;;;29.27;19.52;;;14.10;75.10;;;;;;4990504;28;20026;-69
2022/03/18 11:51:28;;;;;;;28.17;20.00;;;14.00;75.50;;;;;;4993672;28;20024;-68
2022/03/18 11:53:56;;;;;;;26.15;18.30;;;13.30;75.80;;;;;;4995948;28;20379;-69
2022/03/18 11:56:44;;;;;;;27.33;19.25;;;13.60;75.90;;;;;;4998039;28;20026;-68
2022/03/18 11:59:36;;;;;;;;;;;13.30;75.90;;;;;;4995114;28;20075;-69
2022/03/18 12:02:11;;;;;;;31.88;19.13;;;13.40;75.70;;;;;;4993298;28;19909;-69
2022/03/18 12:04:39;;;;;;;27.40;19.42;;;13.40;76.00;;;;;;4988643;28;20018;-68
2022/03/18 12:07:09;;;;;;;28.73;20.50;;;13.60;75.40;;;;;;4994631;28;20030;-69
2022/03/18 12:09:57;;;;;;;26.92;19.10;;;13.60;74.90;;;;;;4990511;28;20356;-68
2022/03/18 12:12:24;;;;;;;30.98;18.85;;;13.20;75.80;;;;;;4995944;28;20030;-68
2022/03/18 12:14:54;;;;;;;29.23;19.80;;;13.40;75.50;;;;;;4994460;28;20025;-68
2022/03/18 12:17:24;;;;;;;31.60;21.10;;;13.50;74.50;;;;;;4996424;28;20018;-68
2022/03/18 12:19:55;;;;;;;31.35;21.70;;;13.20;76.40;;;;;;4989431;28;20153;-69
2022/03/18 12:22:22;;;;;;;29.52;20.25;;;13.10;76.30;;;;;;4999776;28;20026;-68
2022/03/18 12:24:53;;;;;;;28.83;19.60;;;13.40;76.20;;;;;;4991546;28;20080;-68
2022/03/18 12:27:20;;;;;;;32.85;21.85;;;13.70;75.50;;;;;;4997659;28;20018;-68
2022/03/18 12:29:46;;;;;;;31.25;20.58;;;13.80;74.80;;;;;;4989469;28;20796;-69
2022/03/18 12:32:18;;;;;;;29.80;21.48;;;13.80;75.70;;;;;;4999822;28;20030;-69
2022/03/18 12:34:52;;;;;;;31.58;21.23;;;13.40;74.40;;;;;;4998824;28;20043;-68
2022/03/18 12:37:31;;;;;;;31.70;21.58;;;13.60;74.40;;;;;;5002604;28;20113;-68
2022/03/18 12:40:02;;;;;;;31.73;20.60;;;13.30;74.60;;;;;;5001684;28;20033;-68
2022/03/18 12:42:28;;;;;;;33.40;21.92;;;13.30;75.20;;;;;;4997436;28;20072;-68
2022/03/18 12:44:59;;;;;;;29.20;19.95;;;13.60;74.90;;;;;;5000149;28;20022;-69
2022/03/18 12:47:31;;;;;;;32.05;20.58;;;13.70;72.60;;;;;;5001894;28;20108;-68
2022/03/18 12:50:00;;;;;;;28.98;20.05;;;13.80;72.20;;;;;;5001010;28;20706;-68
2022/03/18 12:52:26;;;;;;;28.13;19.92;;;13.90;72.60;;;;;;5001644;28;20080;-69
2022/03/18 12:55:07;;;;;;;28.77;20.02;;;13.80;71.70;;;;;;5002446;28;20036;-68
2022/03/18 12:57:38;;;;;;;29.42;19.48;;;14.00;71.60;;;;;;4998814;28;20543;-69
2022/03/18 13:00:09;;;;;;;29.90;19.92;;;13.70;70.50;;;;;;5001823;28;20026;-68
2022/03/18 13:02:35;;;;;;;31.20;20.27;;;13.50;71.30;;;;;;4997223;28;20018;-69
2022/03/18 13:05:05;;;;;;;28.63;18.13;;;13.10;71.30;;;;;;5001110;28;20404;-69
2022/03/18 13:07:31;;;;;;;26.83;18.00;;;13.10;72.20;;;;;;4998178;28;20057;-68